createdAt,value
2018-03-28T00:01:35.540Z,11.65
2018-03-28T00:04:01.938Z,12.65
2018-03-28T00:06:28.399Z,11.82
2018-03-28T00:08:54.787Z,11.60
2018-03-28T00:11:21.229Z,11.93
2018-03-28T00:13:47.630Z,12.23
2018-03-28T00:16:14.733Z,11.48
2018-03-28T00:18:41.043Z,10.37
2018-03-28T00:21:07.396Z,11.75
2018-03-28T00:23:33.757Z,12.50
2018-03-28T00:26:00.141Z,13.02
2018-03-28T00:28:26.563Z,12.97
2018-03-28T00:30:53.745Z,11.25
2018-03-28T00:33:20.130Z,12.10
2018-03-28T00:35:46.525Z,11.88
2018-03-28T00:38:12.992Z,11.65
2018-03-28T00:40:39.346Z,12.18
2018-03-28T00:43:05.703Z,11.95
2018-03-28T00:45:32.871Z,12.60
2018-03-28T00:47:59.294Z,13.30
2018-03-28T00:50:25.690Z,12.05
2018-03-28T00:52:52.121Z,11.93
2018-03-28T00:55:18.448Z,11.75
2018-03-28T00:57:44.731Z,13.43
2018-03-28T01:00:11.029Z,12.32
2018-03-28T01:02:37.332Z,12.00
2018-03-28T01:05:04.401Z,17.90
2018-03-28T01:07:31.422Z,13.75
2018-03-28T01:09:57.780Z,13.60
2018-03-28T01:12:24.030Z,13.73
2018-03-28T01:14:51.055Z,14.65
2018-03-28T01:17:17.349Z,13.20
2018-03-28T01:19:43.622Z,14.05
2018-03-28T01:22:09.914Z,13.98
2018-03-28T01:24:36.964Z,16.25
2018-03-28T01:27:03.387Z,16.42
2018-03-28T01:29:29.706Z,16.95
2018-03-28T01:31:55.984Z,19.08
2018-03-28T01:34:22.277Z,17.45
2018-03-28T01:36:49.323Z,18.87
2018-03-28T01:39:16.349Z,19.48
2018-03-28T01:41:42.652Z,19.40
2018-03-28T01:44:08.957Z,19.37
2018-03-28T01:46:35.966Z,20.75
2018-03-28T01:49:02.253Z,20.20
2018-03-28T01:51:28.525Z,22.70
2018-03-28T01:53:55.529Z,21.40
2018-03-28T01:56:21.801Z,22.90
2018-03-28T01:58:48.063Z,21.37
2018-03-28T02:01:15.063Z,22.20
2018-03-28T02:03:41.337Z,23.55
2018-03-28T02:06:08.374Z,24.90
2018-03-28T02:08:34.679Z,27.30
2018-03-28T02:11:00.957Z,23.05
2018-03-28T02:13:27.212Z,26.27
2018-03-28T02:15:53.519Z,27.67
2018-03-28T02:18:19.784Z,27.77
2018-03-28T02:20:46.057Z,30.60
2018-03-28T02:23:12.326Z,29.20
2018-03-28T02:25:39.332Z,30.10
2018-03-28T02:28:05.596Z,30.75
2018-03-28T02:30:32.627Z,33.25
2018-03-28T02:32:58.903Z,33.40
2018-03-28T02:35:25.150Z,33.20
2018-03-28T02:37:52.125Z,35.70
2018-03-28T02:40:18.378Z,36.40
2018-03-28T02:42:44.637Z,35.70
2018-03-28T02:45:10.887Z,31.83
2018-03-28T02:47:37.129Z,38.85
2018-03-28T02:50:03.378Z,39.20
2018-03-28T02:52:29.613Z,37.10
2018-03-28T02:54:55.888Z,39.92
2018-03-28T02:57:22.108Z,36.47
2018-03-28T02:59:48.465Z,39.00
2018-03-28T03:02:15.469Z,38.47
2018-03-28T03:04:41.709Z,40.73
2018-03-28T03:07:07.966Z,40.70
2018-03-28T03:09:34.235Z,43.03
2018-03-28T03:12:00.489Z,40.10
2018-03-28T03:14:27.464Z,40.63
2018-03-28T03:16:54.437Z,39.13
2018-03-28T03:19:20.692Z,39.90
2018-03-28T03:21:46.965Z,41.85
2018-03-28T03:24:13.201Z,41.87
2018-03-28T03:26:39.459Z,41.58
2018-03-28T03:29:05.718Z,39.83
2018-03-28T03:31:32.560Z,38.83
2018-03-28T03:33:58.790Z,37.60
2018-03-28T03:36:25.052Z,40.63
2018-03-28T03:38:51.284Z,39.60
2018-03-28T03:41:18.293Z,42.03
2018-03-28T03:43:44.543Z,39.47
2018-03-28T03:46:10.793Z,41.10
2018-03-28T03:48:37.132Z,40.00
2018-03-28T03:51:03.407Z,38.90
2018-03-28T03:53:29.650Z,39.22
2018-03-28T03:55:55.893Z,39.63
2018-03-28T03:58:22.893Z,39.27
2018-03-28T04:00:49.128Z,39.13
2018-03-28T04:03:15.376Z,39.77
2018-03-28T04:05:41.607Z,38.40
2018-03-28T04:08:07.881Z,37.80
2018-03-28T04:10:34.142Z,38.08
2018-03-28T04:13:00.386Z,36.67
2018-03-28T04:15:26.626Z,37.13
2018-03-28T04:17:52.862Z,35.87
2018-03-28T04:20:19.092Z,35.03
2018-03-28T04:22:45.325Z,36.77
2018-03-28T04:25:11.578Z,36.50
2018-03-28T04:27:37.813Z,35.47
2018-03-28T04:30:04.067Z,36.13
2018-03-28T04:32:30.314Z,35.47
2018-03-28T04:34:56.561Z,34.43
2018-03-28T04:37:22.885Z,35.53
2018-03-28T04:39:50.614Z,35.40
2018-03-28T04:42:17.625Z,33.57
2018-03-28T04:44:43.877Z,37.40
2018-03-28T04:47:10.126Z,37.87
2018-03-28T04:49:36.378Z,37.13
2018-03-28T04:52:02.935Z,38.08
2018-03-28T04:54:29.203Z,37.90
2018-03-28T04:56:55.534Z,37.00
2018-03-28T04:59:23.274Z,37.73
2018-03-28T05:01:50.274Z,36.30
2018-03-28T05:04:16.564Z,40.10
2018-03-28T05:06:42.818Z,40.70
2018-03-28T05:09:09.890Z,38.67
2018-03-28T05:11:36.855Z,43.97
2018-03-28T05:14:03.870Z,41.40
2018-03-28T05:16:30.105Z,44.07
2018-03-28T05:18:56.337Z,42.97
2018-03-28T05:21:22.586Z,42.40
2018-03-28T05:23:50.131Z,43.45
2018-03-28T05:26:16.386Z,41.60
2018-03-28T05:28:42.654Z,42.40
2018-03-28T05:31:08.926Z,46.80
2018-03-28T05:33:35.225Z,43.77
2018-03-28T05:36:01.489Z,44.90
2018-03-28T05:38:27.732Z,43.17
2018-03-28T05:40:53.992Z,42.60
2018-03-28T05:43:20.242Z,41.90
2018-03-28T05:45:47.256Z,44.53
2018-03-28T05:48:14.255Z,41.90
2018-03-28T05:50:40.529Z,41.10
2018-03-28T05:53:06.767Z,39.77
2018-03-28T05:55:33.058Z,41.20
2018-03-28T05:57:59.325Z,39.30
2018-03-28T06:00:26.321Z,41.47
2018-03-28T06:02:52.595Z,38.97
2018-03-28T06:05:18.886Z,39.87
2018-03-28T06:07:45.140Z,37.20
2018-03-28T06:10:11.492Z,35.57
2018-03-28T06:12:37.751Z,37.17
2018-03-28T06:15:04.025Z,35.90
2018-03-28T06:17:30.334Z,34.60
2018-03-28T06:19:57.313Z,35.43
2018-03-28T06:22:24.293Z,32.33
2018-03-28T06:24:51.330Z,33.00
2018-03-28T06:27:18.356Z,34.57
2018-03-28T06:29:44.616Z,32.07
2018-03-28T06:32:10.903Z,35.37
2018-03-28T06:34:37.337Z,31.08
2018-03-28T06:37:03.774Z,31.87
2018-03-28T06:39:30.047Z,34.30
2018-03-28T06:41:56.355Z,34.53
2018-03-28T06:44:22.671Z,33.38
2018-03-28T06:46:48.927Z,35.33
2018-03-28T06:49:15.191Z,32.80
2018-03-28T06:51:42.205Z,32.08
2018-03-28T06:54:08.474Z,35.37
2018-03-28T06:56:34.774Z,34.22
2018-03-28T06:59:01.037Z,33.23
2018-03-28T07:01:27.371Z,39.23
2018-03-28T07:03:53.686Z,34.50
2018-03-28T07:06:19.951Z,33.70
2018-03-28T07:08:46.238Z,32.57
2018-03-28T07:11:12.552Z,35.27
2018-03-28T07:13:38.853Z,33.57
2018-03-28T07:16:08.249Z,34.80
2018-03-28T07:18:34.562Z,30.40
2018-03-28T07:21:00.854Z,32.00
2018-03-28T07:23:27.131Z,31.13
2018-03-28T07:25:53.382Z,29.60
2018-03-28T07:28:19.601Z,28.40
2018-03-28T07:30:46.565Z,31.43
2018-03-28T07:33:12.813Z,27.83
2018-03-28T07:35:39.092Z,28.93
2018-03-28T07:38:06.082Z,26.43
2018-03-28T07:40:32.365Z,27.90
2018-03-28T07:42:59.374Z,29.10
2018-03-28T07:45:25.599Z,29.77
2018-03-28T07:47:51.838Z,31.00
2018-03-28T07:50:18.079Z,30.57
2018-03-28T07:52:45.032Z,32.83
2018-03-28T07:55:12.073Z,33.10
2018-03-28T07:57:40.253Z,32.87
2018-03-28T08:00:06.517Z,33.00
2018-03-28T08:02:33.602Z,33.90
2018-03-28T08:04:59.845Z,34.00
2018-03-28T08:07:26.159Z,28.73
2018-03-28T08:09:53.138Z,30.70
2018-03-28T08:12:19.414Z,31.53
2018-03-28T08:14:45.626Z,28.87
2018-03-28T08:17:11.870Z,29.60
2018-03-28T08:19:38.840Z,31.57
2018-03-28T08:22:09.149Z,31.47
2018-03-28T08:24:36.089Z,31.83
2018-03-28T08:27:02.370Z,31.70
2018-03-28T08:29:29.386Z,31.43
2018-03-28T08:31:55.609Z,31.80
2018-03-28T08:34:21.844Z,32.87
2018-03-28T08:36:48.069Z,31.97
2018-03-28T08:39:17.352Z,31.07
2018-03-28T08:41:43.624Z,32.77
2018-03-28T08:44:09.874Z,33.07
2018-03-28T08:46:36.148Z,32.47
2018-03-28T08:49:02.416Z,32.77
2018-03-28T08:51:28.647Z,31.47
2018-03-28T08:53:54.886Z,32.87
2018-03-28T08:56:21.136Z,32.17
2018-03-28T08:58:47.378Z,33.97
2018-03-28T09:01:13.626Z,33.27
2018-03-28T09:03:39.854Z,33.40
2018-03-28T09:06:06.862Z,33.60
2018-03-28T09:08:33.126Z,35.33
2018-03-28T09:11:00.115Z,36.60
2018-03-28T09:13:26.362Z,36.27
2018-03-28T09:15:52.617Z,35.33
2018-03-28T09:18:19.569Z,34.37
2018-03-28T09:20:46.588Z,33.00
2018-03-28T09:23:12.814Z,33.50
2018-03-28T09:25:39.068Z,34.87
2018-03-28T09:28:05.358Z,35.70
2018-03-28T09:30:31.630Z,31.67
2018-03-28T09:32:58.734Z,30.27
2018-03-28T09:35:25.030Z,32.97
2018-03-28T09:37:51.294Z,36.10
2018-03-28T09:40:17.554Z,31.80
2018-03-28T09:42:43.922Z,29.17
2018-03-28T09:45:10.946Z,29.93
2018-03-28T09:47:37.212Z,30.03
2018-03-28T09:50:04.264Z,28.90
2018-03-28T09:52:30.537Z,28.60
2018-03-28T09:54:57.498Z,27.50
2018-03-28T09:57:23.753Z,27.10
2018-03-28T09:59:50.026Z,26.33
2018-03-28T10:02:16.338Z,27.20
2018-03-28T10:04:48.610Z,27.93
2018-03-28T10:07:14.861Z,29.60
2018-03-28T10:09:41.106Z,29.17
2018-03-28T10:12:07.365Z,28.37
2018-03-28T10:14:33.870Z,29.83
2018-03-28T10:17:00.226Z,31.30
2018-03-28T10:19:26.504Z,32.30
2018-03-28T10:21:52.742Z,32.80
2018-03-28T10:24:19.018Z,33.00
2018-03-28T10:26:45.274Z,34.30
2018-03-28T10:29:12.282Z,34.00
2018-03-28T10:31:38.586Z,32.17
2018-03-28T10:34:04.892Z,31.10
2018-03-28T10:36:31.168Z,26.20
2018-03-28T10:38:57.440Z,23.43
2018-03-28T10:41:23.699Z,22.23
2018-03-28T10:43:49.961Z,18.93
2018-03-28T10:46:17.241Z,22.50
2018-03-28T10:48:43.492Z,22.20
2018-03-28T10:51:09.789Z,22.20
2018-03-28T10:53:36.826Z,21.40
2018-03-28T10:56:03.082Z,19.13
2018-03-28T10:58:29.373Z,20.47
2018-03-28T11:00:56.411Z,21.10
2018-03-28T11:03:22.706Z,19.73
2018-03-28T11:05:49.018Z,21.13
2018-03-28T11:08:16.117Z,20.10
2018-03-28T11:10:42.376Z,20.60
2018-03-28T11:13:08.665Z,21.40
2018-03-28T11:15:34.933Z,22.30
2018-03-28T11:18:01.278Z,21.90
2018-03-28T11:20:27.648Z,22.23
2018-03-28T11:22:53.829Z,24.27
2018-03-28T11:25:20.859Z,23.33
2018-03-28T11:27:47.153Z,26.23
2018-03-28T11:30:14.105Z,26.63
2018-03-28T11:32:40.359Z,26.30
2018-03-28T11:35:06.663Z,26.20
2018-03-28T11:37:33.010Z,28.40
2018-03-28T11:39:59.991Z,27.23
2018-03-28T11:42:26.248Z,28.33
2018-03-28T11:44:52.502Z,27.90
2018-03-28T11:47:18.740Z,26.90
2018-03-28T11:49:44.962Z,27.80
2018-03-28T11:52:11.185Z,26.50
2018-03-28T11:54:37.417Z,28.43
2018-03-28T11:57:04.411Z,29.70
2018-03-28T11:59:30.640Z,28.67
2018-03-28T12:01:56.926Z,28.43
2018-03-28T12:04:23.166Z,28.90
2018-03-28T12:06:49.409Z,27.10
2018-03-28T12:09:16.371Z,29.20
2018-03-28T12:11:42.608Z,29.03
2018-03-28T12:14:08.819Z,28.13
2018-03-28T12:16:35.065Z,28.07
2018-03-28T12:19:01.318Z,27.00
2018-03-28T12:21:27.557Z,28.50
2018-03-28T12:23:53.809Z,31.10
2018-03-28T12:26:20.041Z,28.70
2018-03-28T12:28:46.408Z,29.40
2018-03-28T12:31:12.620Z,28.27
2018-03-28T12:33:38.819Z,30.80
2018-03-28T12:36:05.094Z,28.47
2018-03-28T12:38:31.338Z,29.20
2018-03-28T12:40:57.585Z,25.93
2018-03-28T12:43:23.836Z,27.77
2018-03-28T12:45:50.057Z,28.23
2018-03-28T12:48:16.326Z,27.63
2018-03-28T12:50:42.554Z,27.33
2018-03-28T12:53:08.785Z,27.47
2018-03-28T12:55:35.214Z,26.47
2018-03-28T12:58:07.173Z,26.30
2018-03-28T13:00:33.418Z,26.73
2018-03-28T13:02:59.630Z,26.87
2018-03-28T13:05:25.884Z,27.57
2018-03-28T13:07:52.186Z,25.93
2018-03-28T13:10:19.134Z,23.60
2018-03-28T13:12:45.386Z,22.67
2018-03-28T13:15:11.609Z,22.03
2018-03-28T13:17:37.880Z,21.70
2018-03-28T13:20:07.716Z,23.03
2018-03-28T13:22:33.969Z,23.60
2018-03-28T13:25:01.285Z,24.40
2018-03-28T13:27:27.565Z,25.80
2018-03-28T13:29:53.814Z,22.20
2018-03-28T13:32:20.065Z,22.90
2018-03-28T13:34:52.074Z,23.53
2018-03-28T13:37:18.345Z,24.57
2018-03-28T13:39:44.606Z,22.93
2018-03-28T13:42:10.845Z,21.63
2018-03-28T13:44:38.629Z,23.70
2018-03-28T13:47:05.646Z,26.13
2018-03-28T13:49:37.537Z,24.60
2018-03-28T13:52:05.269Z,24.70
2018-03-28T13:54:31.497Z,23.97
2018-03-28T13:56:57.721Z,23.33
2018-03-28T13:59:23.949Z,20.67
2018-03-28T14:01:50.182Z,18.90
2018-03-28T14:04:16.413Z,17.10
2018-03-28T14:06:42.669Z,18.23
2018-03-28T14:09:08.897Z,17.57
2018-03-28T14:11:35.131Z,16.40
2018-03-28T14:14:02.900Z,15.80
2018-03-28T14:16:29.193Z,16.83
2018-03-28T14:18:55.434Z,16.13
2018-03-28T14:21:21.649Z,14.40
2018-03-28T14:23:47.911Z,13.97
2018-03-28T14:26:14.930Z,14.70
2018-03-28T14:28:41.190Z,13.40
2018-03-28T14:31:07.482Z,13.80
2018-03-28T14:33:34.470Z,14.07
2018-03-28T14:36:00.776Z,14.10
2018-03-28T14:38:27.765Z,13.60
2018-03-28T14:40:54.745Z,13.60
2018-03-28T14:43:20.990Z,11.53
2018-03-28T14:45:47.310Z,8.27
2018-03-28T14:48:14.286Z,6.90
2018-03-28T14:50:40.519Z,5.93
2018-03-28T14:53:06.771Z,5.40
2018-03-28T14:55:33.001Z,3.87
2018-03-28T14:57:59.245Z,4.90
2018-03-28T15:00:25.523Z,5.65
2018-03-28T15:02:51.769Z,6.40
2018-03-28T15:05:17.982Z,6.10
2018-03-28T15:07:44.250Z,6.10
2018-03-28T15:10:10.475Z,5.87
2018-03-28T15:12:36.746Z,6.00
2018-03-28T15:15:03.007Z,5.97
2018-03-28T15:17:30.502Z,5.65
2018-03-28T15:19:57.889Z,7.22
2018-03-28T15:22:24.117Z,6.75
2018-03-28T15:24:50.346Z,6.43
2018-03-28T15:27:16.581Z,5.53
2018-03-28T15:29:42.866Z,6.53
2018-03-28T15:32:10.624Z,6.77
2018-03-28T15:34:36.912Z,7.07
2018-03-28T15:37:03.202Z,6.12
2018-03-28T15:39:29.480Z,6.75
2018-03-28T15:41:56.546Z,6.07
2018-03-28T15:44:22.753Z,5.53
2018-03-28T15:46:49.768Z,6.15
2018-03-28T15:49:16.021Z,6.83
2018-03-28T15:51:42.554Z,5.60
2018-03-28T15:54:08.894Z,6.50
2018-03-28T15:56:35.204Z,6.27
2018-03-28T15:59:08.469Z,5.67
2018-03-28T16:01:36.235Z,5.85
2018-03-28T16:04:02.521Z,6.53
2018-03-28T16:06:28.737Z,6.87
2018-03-28T16:08:54.999Z,6.80
2018-03-28T16:11:21.257Z,6.65
2018-03-28T16:13:47.516Z,6.70
2018-03-28T16:16:13.877Z,6.82
2018-03-28T16:18:40.138Z,6.50
2018-03-28T16:21:06.414Z,5.55
2018-03-28T16:23:32.735Z,5.95
2018-03-28T16:25:59.766Z,6.32
2018-03-28T16:28:26.010Z,5.68
2018-03-28T16:30:52.261Z,6.85
2018-03-28T16:33:19.247Z,6.15
2018-03-28T16:35:45.548Z,6.32
2018-03-28T16:38:11.785Z,8.38
2018-03-28T16:40:38.749Z,7.50
2018-03-28T16:43:05.011Z,6.78
2018-03-28T16:45:32.294Z,6.03
2018-03-28T16:47:58.698Z,7.40
2018-03-28T16:50:25.389Z,7.30
2018-03-28T16:52:51.625Z,6.20
2018-03-28T16:55:17.895Z,8.20
2018-03-28T16:57:44.073Z,7.00
2018-03-28T17:00:11.020Z,7.73
2018-03-28T17:02:41.222Z,6.90
2018-03-28T17:05:07.488Z,8.57
2018-03-28T17:07:33.764Z,7.23
2018-03-28T17:10:00.011Z,7.13
2018-03-28T17:12:26.317Z,6.90
2018-03-28T17:14:52.546Z,8.07
2018-03-28T17:17:19.564Z,8.57
2018-03-28T17:19:45.761Z,8.00
2018-03-28T17:22:12.442Z,8.10
2018-03-28T17:24:40.833Z,8.90
2018-03-28T17:27:07.079Z,8.47
2018-03-28T17:29:33.385Z,9.00
2018-03-28T17:32:00.382Z,9.07
2018-03-28T17:34:26.669Z,8.80
2018-03-28T17:36:53.734Z,8.67
2018-03-28T17:39:20.008Z,8.50
2018-03-28T17:41:46.407Z,8.63
2018-03-28T17:44:12.878Z,9.05
2018-03-28T17:46:42.436Z,9.65
2018-03-28T17:49:10.102Z,8.83
2018-03-28T17:51:36.368Z,9.20
2018-03-28T17:54:02.669Z,8.53
2018-03-28T17:56:29.071Z,9.47
2018-03-28T17:58:56.180Z,9.43
2018-03-28T18:01:22.440Z,9.70
2018-03-28T18:03:48.705Z,10.20
2018-03-28T18:06:15.008Z,9.40
2018-03-28T18:08:41.313Z,8.40
2018-03-28T18:11:08.330Z,9.17
2018-03-28T18:13:34.619Z,8.60
2018-03-28T18:16:01.015Z,7.83
2018-03-28T18:18:28.066Z,10.70
2018-03-28T18:20:54.364Z,9.73
2018-03-28T18:23:20.678Z,8.57
2018-03-28T18:25:46.962Z,11.20
2018-03-28T18:28:13.201Z,11.30
2018-03-28T18:30:39.418Z,10.40
2018-03-28T18:33:05.646Z,12.30
2018-03-28T18:35:31.933Z,10.67
2018-03-28T18:37:58.182Z,11.30
2018-03-28T18:40:24.471Z,7.70
2018-03-28T18:42:50.717Z,4.03
2018-03-28T18:45:17.750Z,4.33
2018-03-28T18:47:44.074Z,3.62
2018-03-28T18:50:10.293Z,5.23
2018-03-28T18:52:37.298Z,6.63
2018-03-28T18:55:03.578Z,6.47
2018-03-28T18:57:30.593Z,5.13
2018-03-28T18:59:56.865Z,6.00
2018-03-28T19:02:23.907Z,6.10
2018-03-28T19:04:50.155Z,6.60
2018-03-28T19:07:17.201Z,7.43
2018-03-28T19:09:43.465Z,7.10
2018-03-28T19:12:09.728Z,5.90
2018-03-28T19:14:35.984Z,6.10
2018-03-28T19:17:03.001Z,6.37
2018-03-28T19:19:30.027Z,7.90
2018-03-28T19:21:56.362Z,8.80
2018-03-28T19:24:22.657Z,10.80
2018-03-28T19:26:49.713Z,12.37
2018-03-28T19:29:15.966Z,12.70
2018-03-28T19:31:42.982Z,14.47
2018-03-28T19:34:09.234Z,13.60
2018-03-28T19:36:35.539Z,11.50
2018-03-28T19:39:01.829Z,10.27
2018-03-28T19:41:28.094Z,8.70
2018-03-28T19:43:54.576Z,8.40
2018-03-28T19:46:20.881Z,6.45
2018-03-28T19:48:47.930Z,6.37
2018-03-28T19:51:14.182Z,4.85
2018-03-28T19:53:41.193Z,5.53
2018-03-28T19:56:07.483Z,5.05
2018-03-28T19:58:33.708Z,4.78
2018-03-28T20:00:59.953Z,6.03
2018-03-28T20:03:26.313Z,5.68
2018-03-28T20:05:53.292Z,8.40
2018-03-28T20:08:20.276Z,9.68
2018-03-28T20:10:46.550Z,9.32
2018-03-28T20:13:12.795Z,9.38
2018-03-28T20:15:39.149Z,8.70
2018-03-28T20:18:06.199Z,9.70
2018-03-28T20:20:32.541Z,10.43
2018-03-28T20:22:58.948Z,13.07
2018-03-28T20:25:25.206Z,12.02
2018-03-28T20:27:53.909Z,12.85
2018-03-28T20:30:20.150Z,15.88
2018-03-28T20:32:46.414Z,14.70
2018-03-28T20:35:12.709Z,17.40
2018-03-28T20:37:38.990Z,17.00
2018-03-28T20:40:05.294Z,17.65
2018-03-28T20:42:31.626Z,20.50
2018-03-28T20:44:58.126Z,19.85
2018-03-28T20:47:25.166Z,21.12
2018-03-28T20:49:51.457Z,20.33
2018-03-28T20:52:18.533Z,22.05
2018-03-28T20:54:45.901Z,21.48
2018-03-28T20:57:12.251Z,21.45
2018-03-28T20:59:38.518Z,21.75
2018-03-28T21:02:05.414Z,22.95
2018-03-28T21:04:31.769Z,23.05
2018-03-28T21:06:58.935Z,23.05
2018-03-28T21:09:26.096Z,21.42
2018-03-28T21:11:52.455Z,21.75
2018-03-28T21:14:18.814Z,22.15
2018-03-28T21:16:45.941Z,21.48
2018-03-28T21:19:12.280Z,20.40
2018-03-28T21:21:39.342Z,19.02
2018-03-28T21:24:05.717Z,14.45
2018-03-28T21:26:32.041Z,11.43
2018-03-28T21:28:58.317Z,13.00
2018-03-28T21:31:24.603Z,12.77
2018-03-28T21:33:50.861Z,12.77
2018-03-28T21:36:17.238Z,12.98
2018-03-28T21:38:43.511Z,13.80
2018-03-28T21:41:10.657Z,15.15
2018-03-28T21:43:36.874Z,15.10
2018-03-28T21:46:03.175Z,14.60
2018-03-28T21:48:30.241Z,14.38
2018-03-28T21:50:57.041Z,16.30
2018-03-28T21:53:23.101Z,14.85
2018-03-28T21:55:49.978Z,15.32
2018-03-28T21:58:16.256Z,15.52
2018-03-28T22:00:42.461Z,14.87
2018-03-28T22:03:08.651Z,13.95
2018-03-28T22:05:34.858Z,15.05
2018-03-28T22:08:01.730Z,13.35
2018-03-28T22:10:27.798Z,14.60
2018-03-28T22:12:54.089Z,13.20
2018-03-28T22:15:20.880Z,12.52
2018-03-28T22:17:46.926Z,10.50
2018-03-28T22:20:12.973Z,10.70
2018-03-28T22:22:39.017Z,10.05
2018-03-28T22:25:05.102Z,9.32
2018-03-28T22:27:31.541Z,9.57
2018-03-28T22:29:57.636Z,9.05
2018-03-28T22:32:23.721Z,10.43
2018-03-28T22:34:50.563Z,10.48
2018-03-28T22:37:16.691Z,11.20
2018-03-28T22:39:45.624Z,11.55
2018-03-28T22:42:11.697Z,12.23
2018-03-28T22:44:39.054Z,14.95
2018-03-28T22:47:05.122Z,17.15
2018-03-28T22:49:32.928Z,18.95
2018-03-28T22:54:33.096Z,19.55
2018-03-28T22:56:59.262Z,17.50
2018-03-28T22:59:25.320Z,18.08
2018-03-28T23:01:51.381Z,17.70
2018-03-28T23:04:18.179Z,16.35
2018-03-28T23:06:45.146Z,14.40
2018-03-28T23:09:11.240Z,12.80
2018-03-28T23:11:39.066Z,12.50
2018-03-28T23:14:05.138Z,10.80
2018-03-28T23:16:31.205Z,11.90
2018-03-28T23:18:57.294Z,9.43
2018-03-28T23:21:23.342Z,10.85
2018-03-28T23:23:49.406Z,10.15
2018-03-28T23:26:16.197Z,10.70
2018-03-28T23:28:42.258Z,10.95
2018-03-28T23:31:08.306Z,10.02
2018-03-28T23:33:34.379Z,10.15
2018-03-28T23:36:00.490Z,10.45
2018-03-28T23:38:26.543Z,10.70
2018-03-28T23:40:53.389Z,9.82
2018-03-28T23:43:20.172Z,8.45
2018-03-28T23:45:46.218Z,8.25
2018-03-28T23:48:12.265Z,8.02
2018-03-28T23:50:38.314Z,8.02
2018-03-28T23:53:04.383Z,8.35
2018-03-28T23:55:31.187Z,9.40
2018-03-28T23:57:57.246Z,9.60
